Time;durP1;ratioP1;P1;durP2;ratioP2;P2;SDS_P1;SDS_P2;PMS_P1;PMS_P2;Temp;Humidity;BMP_temperature;BMP_pressure;BME280_temperature;BME280_humidity;BME280_pressure;Samples;Min_cycle;Max_cycle;Signal;HPM_P1;HPM_P2
2022/06/22 00:00:58;;;;;;;6.00;3.75;;;;;;;15.99;59.34;99519.91;10422164;28;20053;-84
2022/06/22 00:06:03;;;;;;;10.18;3.65;;;;;;;15.89;59.30;99482.97;10440052;28;20045;-84
2022/06/22 00:11:12;;;;;;;4.70;3.38;;;;;;;15.78;59.90;99488.34;10418798;28;20063;-84
2022/06/22 00:16:22;;;;;;;6.65;3.50;;;;;;;15.65;59.88;99497.47;10423120;28;20087;-84
2022/06/22 00:21:27;;;;;;;6.65;3.70;;;;;;;15.63;60.08;99496.78;10422005;28;20077;-84
2022/06/22 00:26:34;;;;;;;7.15;3.55;;;;;;;15.60;60.35;99492.59;10439455;28;20535;-84
2022/06/22 00:31:38;;;;;;;6.75;3.92;;;;;;;15.59;60.15;99498.03;10395097;28;20150;-84
2022/06/22 00:36:49;;;;;;;6.38;3.70;;;;;;;15.57;60.17;99503.41;10413283;28;20045;-84
2022/06/22 00:42:14;;;;;;;7.00;3.92;;;;;;;15.43;60.58;99495.81;10396224;28;20498;-84
2022/06/22 00:47:31;;;;;;;5.90;4.22;;;;;;;15.28;60.35;99492.75;10396943;28;20502;-83
2022/06/22 00:52:41;;;;;;;5.90;3.70;;;;;;;15.26;60.70;99491.19;10395670;28;20054;-83
2022/06/22 00:57:52;;;;;;;6.73;3.70;;;;;;;15.22;60.80;99492.44;10396920;28;20045;-84
2022/06/22 01:03:14;;;;;;;7.28;3.85;;;;;;;15.15;60.84;99486.84;10396443;28;20481;-83
2022/06/22 01:08:44;;;;;;;6.00;3.33;;;;;;;15.19;61.05;99488.25;10395181;28;20103;-84
2022/06/22 01:13:48;;;;;;;6.53;3.90;;;;;;;15.16;60.75;99474.50;10396545;28;20131;-83
2022/06/22 01:19:01;;;;;;;6.57;4.03;;;;;;;15.10;61.01;99475.03;10396429;28;20073;-84
2022/06/22 01:24:44;;;;;;;7.20;3.85;;;;;;;15.01;61.02;99463.47;10394825;28;20136;-84
2022/06/22 01:29:50;;;;;;;6.63;4.25;;;;;;;14.90;60.99;99454.84;10322313;28;20150;-84
2022/06/22 01:34:57;;;;;;;7.40;4.15;;;;;;;14.84;60.98;99452.72;10436754;28;20057;-84
2022/06/22 01:40:19;;;;;;;5.47;3.90;;;;;;;14.74;61.62;99449.16;10417165;28;20053;-84
2022/06/22 01:45:45;;;;;;;6.93;3.80;;;;;;;14.60;61.79;99445.06;10417113;28;20533;-84
2022/06/22 01:51:07;;;;;;;8.50;4.55;;;;;;;14.56;61.65;99447.16;10434568;28;20476;-83
2022/06/22 01:56:37;;;;;;;9.38;4.72;;;;;;;14.41;61.97;99447.56;10419937;28;20439;-83
2022/06/22 02:01:48;;;;;;;8.37;4.17;;;;;;;14.34;62.27;99446.38;10434809;28;20399;-84
2022/06/22 02:12:27;;;;;;;5.70;4.27;;;;;;;14.33;61.76;99453.44;10440108;28;20053;-83
2022/06/22 02:17:35;;;;;;;9.93;4.35;;;;;;;14.30;61.87;99450.22;10422086;28;21037;-84
2022/06/22 02:22:37;;;;;;;9.43;4.10;;;;;;;14.29;61.63;99444.13;10423339;28;20053;-83
2022/06/22 02:27:39;;;;;;;8.30;4.40;;;;;;;14.25;61.86;99434.81;10422234;28;20147;-84
2022/06/22 02:32:43;;;;;;;11.10;5.97;;;;;;;14.12;61.99;99426.28;10440080;28;20138;-84
2022/06/22 02:37:52;;;;;;;6.93;4.63;;;;;;;13.94;62.81;99422.53;10439104;28;20686;-84
2022/06/22 02:48:45;;;;;;;6.40;4.28;;;;;;;13.85;62.82;99439.03;10437073;28;20584;-83
2022/06/22 02:53:48;;;;;;;6.78;4.30;;;;;;;13.88;62.78;99443.22;10419211;28;20057;-84
2022/06/22 02:58:50;;;;;;;10.52;4.50;;;;;;;13.84;62.88;99432.09;10438299;28;20123;-83
2022/06/22 03:03:58;;;;;;;10.95;4.25;;;;;;;13.93;62.75;99444.53;10420251;28;20138;-84
2022/06/22 03:09:04;;;;;;;7.28;4.38;;;;;;;14.05;62.59;99448.78;10417344;28;20063;-83
2022/06/22 03:14:21;;;;;;;6.18;4.10;;;;;;;14.03;62.49;99442.81;10416689;28;20057;-83
2022/06/22 03:19:32;;;;;;;6.65;4.32;;;;;;;14.12;62.23;99447.34;10416128;28;20474;-83
2022/06/22 03:24:44;;;;;;;9.07;4.50;;;;;;;14.08;62.00;99447.69;10415191;28;20049;-84
2022/06/22 03:29:52;;;;;;;6.43;3.80;;;;;;;14.12;62.02;99471.00;10416085;28;20076;-84
2022/06/22 03:35:06;;;;;;;9.68;4.57;;;;;;;14.15;61.69;99470.72;10416369;28;20582;-84
2022/06/22 03:40:30;;;;;;;8.95;4.50;;;;;;;14.11;61.58;99468.47;10416566;28;20130;-83
2022/06/22 03:45:43;;;;;;;8.30;4.28;;;;;;;14.17;61.54;99481.97;10415981;28;20080;-83
2022/06/22 03:51:03;;;;;;;6.97;3.90;;;;;;;14.20;61.50;99475.63;10432926;28;20048;-83
2022/06/22 03:56:26;;;;;;;7.07;4.18;;;;;;;14.24;61.34;99474.41;10415710;28;20053;-84
2022/06/22 04:01:29;;;;;;;7.40;4.72;;;;;;;14.28;61.49;99460.03;10415805;28;20110;-84
2022/06/22 04:06:38;;;;;;;6.13;4.28;;;;;;;14.45;61.18;99460.31;10431315;28;20044;-84
2022/06/22 04:11:50;;;;;;;7.85;4.88;;;;;;;14.42;60.82;99468.47;10437929;28;20502;-84
2022/06/22 04:16:57;;;;;;;6.93;4.60;;;;;;;14.32;61.19;99459.69;10421639;28;20052;-84
2022/06/22 04:22:23;;;;;;;8.45;4.80;;;;;;;14.56;60.82;99468.19;10424115;28;20151;-84
2022/06/22 04:27:31;;;;;;;7.03;3.80;;;;;;;14.83;60.21;99474.72;10422448;28;20135;-84
2022/06/22 04:32:41;;;;;;;7.10;3.60;;;;;;;15.45;58.80;99480.72;10423267;28;20465;-84
2022/06/22 04:37:52;;;;;;;7.20;3.45;;;;;;;18.75;51.71;99468.88;10421497;28;20513;-83
2022/06/22 04:42:59;;;;;;;9.15;3.17;;;;;;;21.39;45.03;99467.03;10421088;28;20049;-84
2022/06/22 04:48:08;;;;;;;8.35;3.13;;;;;;;21.36;44.90;99470.00;10438546;28;20524;-84
2022/06/22 04:53:34;;;;;;;8.18;3.05;;;;;;;21.11;44.87;99460.44;10438872;28;20098;-85
2022/06/22 04:58:56;;;;;;;7.82;3.28;;;;;;;21.31;44.57;99449.25;10421354;28;20079;-85
2022/06/22 05:04:04;;;;;;;6.45;3.40;;;;;;;21.38;44.07;99452.88;10420623;28;20572;-85
2022/06/22 05:09:18;;;;;;;6.95;3.00;;;;;;;22.36;42.47;99460.19;10420060;28;20128;-85
2022/06/22 05:14:31;;;;;;;8.70;3.38;;;;;;;22.57;42.28;99457.69;10437582;28;20498;-84
2022/06/22 05:19:42;;;;;;;8.43;3.15;;;;;;;23.98;39.19;99462.81;10420626;28;20099;-84
2022/06/22 05:24:50;;;;;;;7.72;2.80;;;;;;;25.24;37.63;99461.13;10436083;28;20079;-84
2022/06/22 05:29:59;;;;;;;5.75;2.78;;;;;;;25.92;35.61;99461.03;10435806;28;20084;-85
2022/06/22 05:35:10;;;;;;;9.55;2.80;;;;;;;23.34;39.30;99464.47;10420323;28;20094;-84
2022/06/22 05:40:13;;;;;;;9.25;2.63;;;;;;;22.16;41.94;99480.31;10419065;28;20072;-85
2022/06/22 05:45:19;;;;;;;10.02;2.78;;;;;;;21.27;43.62;99471.84;10436578;28;20093;-85
2022/06/22 05:50:36;;;;;;;6.60;2.90;;;;;;;20.49;44.99;99476.06;10418794;28;20502;-84
2022/06/22 05:55:56;;;;;;;4.85;2.75;;;;;;;20.35;45.57;99476.72;10417839;28;20053;-84
2022/06/22 06:01:03;;;;;;;7.53;2.95;;;;;;;20.40;45.46;99468.28;10434329;28;20811;-85
2022/06/22 06:06:11;;;;;;;6.35;2.60;;;;;;;20.52;44.43;99470.41;10418557;28;20057;-84
2022/06/22 06:11:18;;;;;;;6.40;2.80;;;;;;;20.37;44.69;99471.25;10418800;28;20928;-85
2022/06/22 06:16:26;;;;;;;5.68;2.72;;;;;;;20.16;44.18;99455.78;10417940;28;20463;-85
2022/06/22 06:21:34;;;;;;;6.47;2.88;;;;;;;20.19;45.13;99453.63;10431760;28;20498;-84
2022/06/22 06:32:44;;;;;;;5.32;2.72;;;;;;;21.25;44.06;99473.03;10432765;28;20084;-85
2022/06/22 06:37:57;;;;;;;8.27;2.80;;;;;;;21.45;44.34;99472.50;10416914;28;20490;-85
2022/06/22 06:43:30;;;;;;;6.95;3.10;;;;;;;21.99;42.08;99470.72;10415761;28;20118;-85
2022/06/22 06:48:34;;;;;;;5.85;2.30;;;;;;;23.31;39.12;99477.31;10414899;28;20045;-84
2022/06/22 06:53:43;;;;;;;6.95;2.40;;;;;;;24.53;36.17;99475.53;10414839;28;20143;-84
2022/06/22 06:58:53;;;;;;;7.13;2.53;;;;;;;25.94;34.26;99481.47;10415007;28;20131;-85
2022/06/22 07:03:58;;;;;;;5.32;1.90;;;;;;;28.29;31.88;99462.47;10431248;28;20045;-85
2022/06/22 07:09:16;;;;;;;4.43;2.20;;;;;;;29.54;27.72;99449.56;10432331;28;20052;-85
2022/06/22 07:14:18;;;;;;;5.60;1.95;;;;;;;30.49;27.80;99437.94;10412857;28;20099;-84
2022/06/22 07:19:25;;;;;;;3.67;1.90;;;;;;;30.95;25.78;99439.84;10415833;28;20103;-86
2022/06/22 07:24:45;;;;;;;7.55;2.05;;;;;;;31.15;25.99;99423.31;10433457;28;20060;-85
2022/06/22 07:30:09;;;;;;;5.05;1.90;;;;;;;30.65;24.51;99426.47;10417352;28;20057;-86
2022/06/22 07:35:18;;;;;;;4.28;1.63;;;;;;;31.07;24.01;99429.09;10417355;28;20107;-85
2022/06/22 07:40:26;;;;;;;6.18;1.60;;;;;;;30.70;24.15;99433.03;10416108;28;20088;-85
2022/06/22 07:45:30;;;;;;;5.25;2.13;;;;;;;30.12;25.56;99425.59;10423534;28;20478;-84
2022/06/22 07:50:36;;;;;;;5.07;2.00;;;;;;;29.92;24.57;99418.81;10425514;28;20099;-85
2022/06/22 07:55:47;;;;;;;4.68;1.95;;;;;;;29.85;25.47;99421.59;10425980;28;20083;-86
2022/06/22 08:00:54;;;;;;;7.97;2.20;;;;;;;30.41;24.02;99429.31;10423136;28;20053;-85
2022/06/22 08:06:03;;;;;;;4.05;1.83;;;;;;;30.20;24.62;99414.47;10424229;28;20092;-86
2022/06/22 08:11:37;;;;;;;5.38;1.80;;;;;;;30.70;24.79;99411.44;10422705;28;20048;-83
2022/06/22 08:16:46;;;;;;;4.22;1.80;;;;;;;30.35;24.84;99401.41;10421691;28;20060;-84
2022/06/22 08:21:51;;;;;;;7.83;1.70;;;;;;;30.77;25.08;99406.72;10423241;28;20088;-84
2022/06/22 08:26:55;;;;;;;3.85;1.60;;;;;;;30.89;23.99;99421.03;10440769;28;21149;-86
2022/06/22 08:32:23;;;;;;;6.05;2.30;;;;;;;31.00;23.45;99418.41;10400993;28;20139;-84
2022/06/22 08:37:48;;;;;;;6.95;2.33;;;;;;;30.53;23.00;99422.09;10392381;28;20072;-84
2022/06/22 08:43:07;;;;;;;7.90;1.95;;;;;;;30.42;24.22;99420.16;10418128;28;20060;-85
2022/06/22 08:48:40;;;;;;;8.02;1.98;;;;;;;30.68;24.03;99420.56;10390951;28;20050;-84
2022/06/22 08:54:16;;;;;;;6.78;1.98;;;;;;;31.20;23.28;99420.72;10395193;28;20072;-81
2022/06/22 08:59:40;;;;;;;6.20;1.90;;;;;;;30.20;24.34;99417.19;10363765;28;20135;-80
2022/06/22 09:04:41;;;;;;;4.68;1.80;;;;;;;29.62;24.58;99405.34;10387347;28;20081;-80
2022/06/22 09:09:52;;;;;;;5.20;1.80;;;;;;;29.55;25.79;99400.03;10379874;28;20064;-81
2022/06/22 09:15:17;;;;;;;7.35;1.88;;;;;;;29.56;25.58;99398.16;10377751;28;20585;-80
2022/06/22 09:20:47;;;;;;;4.25;1.90;;;;;;;29.17;24.73;99403.97;10395461;28;20352;-81
2022/06/22 09:26:06;;;;;;;8.60;1.50;;;;;;;29.46;25.72;99397.88;10362888;28;20050;-81
2022/06/22 09:31:22;;;;;;;5.00;1.80;;;;;;;29.04;26.11;99400.38;10388265;28;20562;-81
2022/06/22 09:36:54;;;;;;;4.70;1.65;;;;;;;29.12;26.23;99387.66;10389417;28;20045;-80
2022/06/22 09:42:21;;;;;;;6.40;1.65;;;;;;;29.53;25.12;99385.13;10383786;28;20049;-81
2022/06/22 09:47:34;;;;;;;3.95;1.55;;;;;;;29.79;24.91;99385.59;10382206;28;20136;-81
2022/06/22 09:53:05;;;;;;;4.07;1.60;;;;;;;29.67;24.51;99381.19;10387889;28;20049;-81
2022/06/22 09:58:29;;;;;;;3.92;1.60;;;;;;;29.26;24.28;99383.75;10383416;28;20134;-80
2022/06/22 10:03:45;;;;;;;5.72;1.70;;;;;;;29.27;23.30;99385.41;10392802;28;20045;-80
2022/06/22 10:09:11;;;;;;;3.05;1.67;;;;;;;29.36;23.87;99386.78;10392004;28;20130;-81
2022/06/22 10:14:24;;;;;;;3.78;1.50;;;;;;;29.63;22.20;99377.31;10389537;28;20049;-81
2022/06/22 10:19:52;;;;;;;4.90;1.60;;;;;;;29.67;21.84;99373.13;10391028;28;20136;-80
2022/06/22 10:25:56;;;;;;;4.28;1.70;;;;;;;29.60;22.30;99367.81;10390179;28;20068;-80
2022/06/22 10:31:06;;;;;;;3.35;1.60;;;;;;;29.78;22.14;99362.41;10321841;28;20576;-80
2022/06/22 10:36:31;;;;;;;3.22;1.38;;;;;;;29.35;21.38;99371.63;10392766;28;20088;-81
2022/06/22 10:47:50;;;;;;;4.65;1.38;;;;;;;29.12;20.47;99366.09;10393197;28;20043;-80
2022/06/22 10:52:55;;;;;;;3.25;1.50;;;;;;;28.84;20.64;99366.59;10392289;28;20495;-81
2022/06/22 10:58:00;;;;;;;2.80;1.40;;;;;;;28.66;21.01;99370.09;10391181;28;20060;-80
2022/06/22 11:03:17;;;;;;;3.10;1.30;;;;;;;28.88;19.78;99379.44;10392854;28;20191;-80
2022/06/22 11:08:51;;;;;;;4.53;1.27;;;;;;;28.67;18.46;99371.72;10387690;28;20148;-81
2022/06/22 11:13:53;;;;;;;2.13;1.30;;;;;;;28.87;19.79;99367.00;10390906;28;20474;-80
2022/06/22 11:19:22;;;;;;;4.75;1.25;;;;;;;28.67;19.81;99363.66;10394227;28;20045;-80
2022/06/22 11:24:45;;;;;;;3.00;1.25;;;;;;;28.69;19.11;99369.63;10398492;28;20092;-80
2022/06/22 11:36:46;;;;;;;3.03;1.60;;;;;;;28.55;16.94;99368.13;10384102;28;20053;-80
2022/06/22 11:42:43;;;;;;;3.83;1.40;;;;;;;28.49;17.25;99368.16;10398944;28;20187;-80
2022/06/22 11:48:01;;;;;;;1.92;1.30;;;;;;;28.56;15.99;99367.09;10397876;28;20045;-80
2022/06/22 11:53:22;;;;;;;2.65;1.40;;;;;;;28.46;15.89;99357.84;10398884;28;20053;-80
2022/06/22 11:58:51;;;;;;;3.20;1.20;;;;;;;28.77;17.34;99358.56;10399413;28;20049;-80
2022/06/22 12:04:17;;;;;;;2.50;1.20;;;;;;;28.63;17.32;99346.31;10399407;28;20057;-80
2022/06/22 12:09:56;;;;;;;6.43;1.38;;;;;;;29.06;17.85;99347.13;10397994;28;20054;-80
2022/06/22 12:15:18;;;;;;;2.55;1.23;;;;;;;29.27;16.61;99345.00;10400582;28;20056;-80
2022/06/22 12:20:25;;;;;;;2.60;1.30;;;;;;;29.06;16.91;99333.66;10396816;28;20241;-80
2022/06/22 12:25:50;;;;;;;5.70;1.50;;;;;;;29.29;16.75;99332.97;10395428;28;20425;-81
2022/06/22 12:31:17;;;;;;;2.75;1.30;;;;;;;29.05;16.61;99326.63;10393214;28;20056;-81
2022/06/22 12:36:35;;;;;;;3.17;1.40;;;;;;;28.85;17.64;99326.03;10410407;28;20045;-81
2022/06/22 12:41:55;;;;;;;2.85;1.42;;;;;;;28.97;18.99;99318.03;10393150;28;20046;-81
2022/06/22 12:47:02;;;;;;;5.57;1.80;;;;;;;29.23;18.23;99303.41;10393635;28;20081;-81
2022/06/22 12:52:10;;;;;;;3.47;1.40;;;;;;;29.13;18.81;99305.81;10395600;28;20049;-81
2022/06/22 12:57:16;;;;;;;3.40;1.40;;;;;;;29.37;19.80;99297.63;10395722;28;20130;-81
2022/06/22 13:02:27;;;;;;;5.30;1.30;;;;;;;29.13;18.71;99295.88;10394556;28;20135;-81
2022/06/22 13:07:36;;;;;;;3.05;1.58;;;;;;;29.18;19.80;99284.41;10396632;28;20049;-81
2022/06/22 13:13:06;;;;;;;5.25;1.38;;;;;;;29.09;19.14;99284.72;10397505;28;20139;-80
2022/06/22 13:18:25;;;;;;;3.45;1.40;;;;;;;28.93;18.74;99274.56;10394923;28;20543;-80
2022/06/22 13:23:45;;;;;;;4.63;1.45;;;;;;;29.17;20.11;99269.31;10395523;28;21006;-82
2022/06/22 13:29:12;;;;;;;3.42;1.25;;;;;;;29.22;19.88;99262.19;10410525;28;20524;-82
2022/06/22 13:34:23;;;;;;;3.42;1.45;;;;;;;29.20;19.36;99261.59;10420065;28;20052;-80
2022/06/22 13:39:44;;;;;;;5.30;1.40;;;;;;;29.08;19.63;99247.25;10419228;28;20076;-81
2022/06/22 13:45:04;;;;;;;4.38;1.55;;;;;;;29.11;19.55;99237.91;10418832;28;20092;-81
2022/06/22 13:50:32;;;;;;;2.67;1.30;;;;;;;28.98;20.86;99238.91;10437141;28;20041;-81
2022/06/22 13:55:42;;;;;;;4.30;1.38;;;;;;;29.28;20.82;99222.75;10436161;28;20056;-81
2022/06/22 14:00:52;;;;;;;3.20;1.30;;;;;;;29.27;20.51;99231.88;10435842;28;20107;-81
2022/06/22 14:06:11;;;;;;;2.67;1.38;;;;;;;29.37;20.31;99232.97;10418787;28;20088;-81
2022/06/22 14:11:36;;;;;;;4.50;1.40;;;;;;;29.44;19.81;99232.94;10437927;28;20103;-81
2022/06/22 14:17:01;;;;;;;2.80;1.38;;;;;;;29.41;21.11;99230.69;10422780;28;20134;-81
2022/06/22 14:22:17;;;;;;;2.53;1.25;;;;;;;29.13;20.41;99227.72;10419094;28;20138;-82
2022/06/22 14:27:39;;;;;;;4.60;1.50;;;;;;;29.06;20.61;99227.81;10416505;28;21098;-81
2022/06/22 14:32:59;;;;;;;6.80;1.50;;;;;;;29.00;21.09;99216.09;10435690;28;20094;-81
2022/06/22 14:38:01;;;;;;;2.53;1.38;;;;;;;29.13;21.52;99222.34;10417566;28;20134;-81
2022/06/22 14:43:12;;;;;;;3.20;1.40;;;;;;;29.17;21.34;99210.91;10416539;28;20060;-81
2022/06/22 14:48:18;;;;;;;5.10;1.40;;;;;;;29.35;21.25;99213.53;10417186;28;20430;-81
2022/06/22 14:53:41;;;;;;;3.60;1.55;;;;;;;29.26;20.67;99214.06;10417291;28;20131;-81
2022/06/22 14:58:55;;;;;;;3.40;1.40;;;;;;;29.35;21.44;99205.44;10416031;28;20084;-81
2022/06/22 15:04:09;;;;;;;3.95;1.40;;;;;;;29.51;20.73;99212.91;10417392;28;20118;-81
2022/06/22 15:09:20;;;;;;;3.33;1.40;;;;;;;29.22;20.43;99215.56;10415699;28;20041;-82
2022/06/22 15:14:35;;;;;;;4.35;1.45;;;;;;;29.23;20.55;99209.97;10416664;28;20053;-81
2022/06/22 15:19:53;;;;;;;2.50;1.30;;;;;;;29.03;20.04;99209.44;10412733;28;20045;-81
2022/06/22 15:25:01;;;;;;;2.57;1.43;;;;;;;29.14;21.97;99195.19;10414775;28;20106;-81
2022/06/22 15:30:13;;;;;;;2.50;1.40;;;;;;;29.01;20.50;99201.56;10414400;28;20140;-81
2022/06/22 15:35:25;;;;;;;6.25;1.55;;;;;;;28.74;20.48;99205.63;10415400;28;20464;-81
2022/06/22 15:40:52;;;;;;;2.83;1.35;;;;;;;28.71;20.17;99203.38;10431275;28;20470;-81
2022/06/22 15:46:29;;;;;;;4.00;1.40;;;;;;;28.74;20.95;99194.88;10413086;28;20628;-81
2022/06/22 15:51:37;;;;;;;4.88;1.40;;;;;;;28.92;20.29;99208.34;10398287;28;20044;-81
2022/06/22 15:56:46;;;;;;;2.63;1.33;;;;;;;29.21;20.14;99204.00;10412609;28;20107;-81
2022/06/22 16:02:26;;;;;;;4.30;1.30;;;;;;;29.31;20.12;99204.28;10406843;28;20041;-80
2022/06/22 16:07:38;;;;;;;2.33;1.20;;;;;;;29.54;19.64;99204.34;10392844;28;20049;-79
2022/06/22 16:18:22;;;;;;;3.35;1.35;;;;;;;29.97;18.84;99200.59;10426229;28;20099;-80
2022/06/22 16:23:49;;;;;;;2.70;1.10;;;;;;;29.83;18.02;99208.03;10416148;28;20053;-80
2022/06/22 16:28:58;;;;;;;2.00;1.00;;;;;;;29.74;17.64;99204.03;10416812;28;20139;-80
2022/06/22 16:34:06;;;;;;;3.80;1.25;;;;;;;29.37;17.65;99207.91;10418423;28;20059;-82
2022/06/22 16:39:15;;;;;;;3.53;1.30;;;;;;;29.37;17.94;99210.59;10411508;28;20560;-81
2022/06/22 16:44:29;;;;;;;2.92;1.20;;;;;;;29.35;17.01;99210.84;10411720;28;20546;-80
2022/06/22 16:49:57;;;;;;;3.83;1.20;;;;;;;29.06;17.18;99212.50;10414708;28;20993;-80
2022/06/22 16:55:05;;;;;;;2.78;1.10;;;;;;;28.94;17.68;99200.84;10410436;28;20132;-81
2022/06/22 17:00:09;;;;;;;3.27;1.10;;;;;;;28.84;18.07;99200.56;10396984;28;21117;-80
2022/06/22 17:05:28;;;;;;;3.03;1.30;;;;;;;28.75;17.93;99199.19;10398303;28;20211;-81
2022/06/22 17:10:36;;;;;;;2.30;1.20;;;;;;;28.83;18.54;99198.88;10398937;28;20123;-80
2022/06/22 17:15:56;;;;;;;4.38;1.15;;;;;;;28.57;17.96;99199.22;10399131;28;20053;-81
2022/06/22 17:21:35;;;;;;;4.93;1.40;;;;;;;28.54;18.06;99188.91;10400573;28;20122;-82
2022/06/22 17:26:40;;;;;;;;;;;;;;;28.14;19.26;99195.72;10405626;28;20099;-81
2022/06/22 17:32:13;;;;;;;2.28;1.20;;;;;;;28.21;19.12;99183.03;10418149;28;19929;-81
2022/06/22 17:37:36;;;;;;;1.60;1.05;;;;;;;28.14;19.14;99193.03;10417381;28;20059;-81
2022/06/22 17:42:50;;;;;;;2.50;1.20;;;;;;;27.99;19.92;99195.25;10396566;28;21109;-81
2022/06/22 17:48:01;;;;;;;2.70;1.20;;;;;;;27.79;19.54;99211.53;10399370;28;20063;-80
2022/06/22 17:53:15;;;;;;;2.75;1.27;;;;;;;27.72;19.69;99215.31;10419774;28;20203;-82
2022/06/22 17:58:33;;;;;;;3.50;1.10;;;;;;;27.58;20.10;99230.72;10393294;28;20541;-80
2022/06/22 18:03:58;;;;;;;3.93;1.10;;;;;;;27.56;20.76;99231.97;10429206;28;20053;-81
2022/06/22 18:09:13;;;;;;;3.15;1.20;;;;;;;27.67;21.30;99234.75;10415831;28;20970;-81
2022/06/22 18:14:29;;;;;;;2.72;1.27;;;;;;;27.33;23.70;99236.03;10415962;28;20040;-81
2022/06/22 18:19:41;;;;;;;9.63;1.92;;;;;;;27.01;27.22;99238.84;10430595;28;20132;-81
2022/06/22 18:24:55;;;;;;;6.45;2.13;;;;;;;26.53;30.84;99243.75;10409722;28;20403;-81
2022/06/22 18:30:08;;;;;;;6.15;2.50;;;;;;;26.38;31.41;99248.53;10407705;28;20564;-81
2022/06/22 18:35:19;;;;;;;5.05;2.00;;;;;;;26.34;31.49;99252.66;10408561;28;20143;-81
2022/06/22 18:46:29;;;;;;;4.93;2.25;;;;;;;26.03;30.87;99263.22;10428345;28;20502;-81
2022/06/22 18:51:50;;;;;;;3.88;1.83;;;;;;;25.34;32.34;99260.00;10410662;28;20051;-82
2022/06/22 18:57:00;;;;;;;3.88;1.85;;;;;;;25.32;32.73;99249.47;10415842;28;20053;-81
2022/06/22 19:02:23;;;;;;;5.78;1.85;;;;;;;25.35;32.86;99249.09;10416254;28;20057;-81
2022/06/22 19:07:28;;;;;;;5.85;2.40;;;;;;;25.22;34.51;99264.28;10416026;28;20083;-81
2022/06/22 19:12:51;;;;;;;7.75;2.10;;;;;;;24.79;35.14;99255.66;10416059;28;20130;-81
2022/06/22 19:18:03;;;;;;;4.50;2.05;;;;;;;24.76;34.61;99258.72;10431196;28;20041;-81
2022/06/22 19:23:33;;;;;;;6.38;2.15;;;;;;;24.37;35.91;99269.19;10433632;28;20072;-81
2022/06/22 19:29:12;;;;;;;7.53;2.25;;;;;;;23.82;37.09;99269.97;10416494;28;20522;-81
2022/06/22 19:34:26;;;;;;;5.15;2.17;;;;;;;23.82;36.10;99272.63;10414714;28;20056;-81
2022/06/22 19:39:55;;;;;;;5.05;2.10;;;;;;;23.70;36.37;99284.81;10437391;28;20134;-81
2022/06/22 19:45:25;;;;;;;6.35;1.90;;;;;;;23.49;37.02;99299.81;10424374;28;20083;-81
2022/06/22 19:51:10;;;;;;;3.88;2.10;;;;;;;23.41;38.65;99307.13;10441864;28;20985;-81
2022/06/22 19:56:43;;;;;;;5.13;1.90;;;;;;;22.91;40.37;99317.75;10424585;28;20070;-81
2022/06/22 20:01:53;;;;;;;5.22;1.90;;;;;;;22.51;41.02;99333.16;10420666;28;20041;-81
2022/06/22 20:07:13;;;;;;;4.60;2.00;;;;;;;22.53;41.24;99339.13;10437289;28;20091;-81
2022/06/22 20:12:23;;;;;;;6.95;2.10;;;;;;;22.46;41.34;99356.84;10421258;28;20052;-82
2022/06/22 20:17:26;;;;;;;7.72;2.33;;;;;;;22.46;41.06;99351.53;10422776;28;20057;-84
2022/06/22 20:22:59;;;;;;;4.10;2.20;;;;;;;22.31;42.95;99361.31;10418182;28;20056;-85
2022/06/22 20:28:22;;;;;;;4.35;2.17;;;;;;;22.11;43.73;99372.66;10438539;28;20502;-85
2022/06/22 20:33:36;;;;;;;8.07;2.40;;;;;;;22.00;43.17;99381.03;10422583;28;20106;-85
2022/06/22 20:38:38;;;;;;;4.78;2.10;;;;;;;21.70;43.59;99394.19;10418192;28;20044;-84
2022/06/22 20:43:56;;;;;;;4.85;2.30;;;;;;;21.68;44.11;99401.53;10416963;28;20071;-85
2022/06/22 20:49:22;;;;;;;5.05;2.38;;;;;;;21.52;44.94;99404.25;10434345;28;20130;-84
2022/06/22 20:54:29;;;;;;;5.65;2.25;;;;;;;21.28;45.38;99422.13;10409269;28;20138;-84
2022/06/22 20:59:37;;;;;;;5.78;2.40;;;;;;;20.81;46.46;99425.59;10419891;28;20057;-85
2022/06/22 21:04:49;;;;;;;6.18;2.05;;;;;;;20.79;46.47;99430.25;10433267;28;20052;-85
2022/06/22 21:10:01;;;;;;;5.78;2.17;;;;;;;20.91;46.38;99447.50;10417910;28;20513;-85
2022/06/22 21:15:29;;;;;;;6.28;2.83;;;;;;;20.86;46.60;99451.66;10419994;28;20161;-85
2022/06/22 21:20:30;;;;;;;16.42;2.47;;;;;;;20.51;47.04;99462.63;10420036;28;20065;-85
2022/06/22 21:25:32;;;;;;;6.03;2.70;;;;;;;20.56;47.29;99466.44;10417686;28;20053;-85
2022/06/22 21:30:37;;;;;;;5.45;2.88;;;;;;;20.24;48.07;99466.41;10435170;28;20110;-85
2022/06/22 21:35:41;;;;;;;5.25;2.60;;;;;;;19.91;48.97;99464.72;10418611;28;20052;-84
2022/06/22 21:41:02;;;;;;;6.13;2.78;;;;;;;19.90;49.10;99468.34;10435118;28;20457;-84
2022/06/22 21:46:18;;;;;;;5.72;2.60;;;;;;;20.04;49.29;99470.38;10420419;28;20057;-84
2022/06/22 21:52:04;;;;;;;6.68;2.67;;;;;;;20.02;49.05;99475.00;10420367;28;20167;-85
2022/06/22 21:57:18;;;;;;;7.25;2.53;;;;;;;20.05;49.30;99472.03;10419677;28;20110;-85
2022/06/22 22:02:57;;;;;;;8.05;3.05;;;;;;;19.51;50.52;99489.22;10419742;28;20925;-84
2022/06/22 22:08:08;;;;;;;6.97;2.90;;;;;;;19.55;50.47;99490.56;10433788;28;20086;-85
2022/06/22 22:13:10;;;;;;;8.60;2.90;;;;;;;19.35;50.80;99491.81;10402693;28;20490;-84
2022/06/22 22:18:14;;;;;;;7.22;3.13;;;;;;;19.28;51.38;99488.94;10439325;28;20072;-84
2022/06/22 22:23:24;;;;;;;6.85;2.90;;;;;;;19.44;51.38;99510.25;10438140;28;20178;-85
2022/06/22 22:28:56;;;;;;;7.37;3.10;;;;;;;19.40;51.69;99508.91;10417448;28;20187;-84
2022/06/22 22:33:58;;;;;;;5.68;3.38;;;;;;;19.00;52.36;99508.63;10437857;28;20107;-85
2022/06/22 22:39:02;;;;;;;5.90;3.08;;;;;;;19.02;52.44;99509.34;10420491;28;20049;-84
2022/06/22 22:44:15;;;;;;;6.53;3.17;;;;;;;19.03;52.65;99512.81;10420310;28;20413;-84
2022/06/22 22:49:24;;;;;;;7.20;3.30;;;;;;;18.98;52.56;99492.03;10418939;28;20502;-85
2022/06/22 22:54:31;;;;;;;6.87;3.50;;;;;;;18.58;53.75;99500.50;10421081;28;20083;-85
2022/06/22 22:59:40;;;;;;;8.15;3.72;;;;;;;18.50;53.99;99508.38;10437758;28;21042;-84
2022/06/22 23:04:43;;;;;;;6.80;3.53;;;;;;;18.57;53.84;99501.50;10417846;28;20080;-84
2022/06/22 23:09:45;;;;;;;6.05;3.50;;;;;;;18.47;53.95;99506.03;10418481;28;20049;-84
2022/06/22 23:14:48;;;;;;;6.63;3.58;;;;;;;18.46;54.37;99514.97;10418998;28;20057;-85
2022/06/22 23:19:50;;;;;;;7.22;3.70;;;;;;;18.59;54.18;99528.66;10418599;28;20048;-85
2022/06/22 23:24:55;;;;;;;8.88;4.03;;;;;;;18.53;54.14;99523.97;10435825;28;20512;-84
2022/06/22 23:30:02;;;;;;;9.27;3.80;;;;;;;18.45;54.63;99525.72;10418264;28;20143;-84
2022/06/22 23:35:10;;;;;;;8.85;4.00;;;;;;;18.09;55.77;99527.47;10419085;28;20048;-85
2022/06/22 23:40:24;;;;;;;8.23;3.60;;;;;;;18.06;56.61;99532.22;10419179;28;20040;-84
2022/06/22 23:45:29;;;;;;;8.23;3.83;;;;;;;18.36;55.84;99538.03;10418108;28;21009;-85
2022/06/22 23:50:31;;;;;;;7.93;4.07;;;;;;;18.49;55.49;99530.56;10435236;28;20605;-85
2022/06/22 23:55:33;;;;;;;8.05;3.85;;;;;;;18.30;55.24;99532.53;10419376;28;20055;-85
